Joelle — 9HWR8 — position and weather

sailwx.info

Track history (hours):
 
Tides and Currents Weather Stations Pressure Air Temp Water Temp Dewpoint Dewpoint Depression Visibility Wind Speed Wind Dir Waves Ship Positions

Joelle

Last reported at 2017-Sep-11 19:08 UTC. Time now 2017-Sep-23 07:45 UTC.
Position N 35°56' E 032°57'.
Warning: this ship's position is 11 days out of date.

Length 108 m; draft 7.3 m.

MMSI: 256534000.

Date/timePositionNaut miles runAvg speedWind from/ knotsBaromVisibWave heightAir tempDewpointWater temp
2017-Sep-11 19:08N 35°56' E 032°57'210.3
2017-Sep-11 18:57N 35°55' E 032°55'810.3
2017-Sep-11 18:10N 35°55' E 032°45'210.7
2017-Sep-11 18:00N 35°56' E 032°43'611.0
2017-Sep-11 17:29N 35°57' E 032°36'511.0
2017-Sep-11 17:00N 35°59' E 032°30'510.9
2017-Sep-11 16:30N 35°60' E 032°23'510.9
2017-Sep-11 16:00N 35°59' E 032°16'1010.8
2017-Sep-11 15:07N 35°59' E 032°05'510.9
2017-Sep-11 14:41N 35°59' E 031°59'211.0
2017-Sep-11 14:31N 35°59' E 031°56'610.9
2017-Sep-11 14:00N 35°59' E 031°50'510.7
2017-Sep-11 13:30N 35°59' E 031°43'510.6
2017-Sep-11 13:00N 35°59' E 031°37'510.4
2017-Sep-11 12:30N 35°59' E 031°30'510.3
2017-Sep-11 12:00N 35°60' E 031°24'510.4
2017-Sep-11 11:30N 35°60' E 031°17'510.5
2017-Sep-11 11:01N 35°60' E 031°11'510.4
2017-Sep-11 10:30N 35°59' E 031°04'510.5
2017-Sep-11 10:00N 35°59' E 030°58'510.6
2017-Sep-11 09:30N 35°59' E 030°51'510.9
2017-Sep-11 09:00N 35°59' E 030°45'611.2
2017-Sep-11 08:30N 35°59' E 030°38'611.4
2017-Sep-11 08:00N 35°60' E 030°31'611.1
2017-Sep-11 07:30N 36°00' E 030°24'233 8.4
2017-Sep-10 03:44N 37°31' E 025°55'210.6
2017-Sep-10 03:30N 37°33' E 025°54'710.5
2017-Sep-10 02:52N 37°39' E 025°51'410.9
2017-Sep-10 02:28N 37°43' E 025°49'13610.6
2017-Sep-09 13:38N 39°50' E 024°46'410.1
2017-Sep-09 13:13N 39°54' E 024°44'210.4
2017-Sep-09 13:00N 39°56' E 024°43'710.3
2017-Sep-09 12:21N 40°02' E 024°39'410.3
2017-Sep-09 11:59N 40°06' E 024°37'510.4
2017-Sep-09 11:30N 40°10' E 024°35'510.7
2017-Sep-09 11:00N 40°15' E 024°32'510.8
2017-Sep-09 10:30N 40°20' E 024°29'510.9
2017-Sep-09 10:00N 40°25' E 024°27'510.8
2017-Sep-09 09:30N 40°30' E 024°24'510.8
2017-Sep-09 09:01N 40°35' E 024°21'510.4
2017-Sep-09 08:31N 40°40' E 024°21'611.3
2017-Sep-09 08:01N 40°46' E 024°24'611.2
2017-Sep-09 07:30N 40°51' E 024°26'510.9
2017-Sep-09 07:00N 40°56' E 024°29'1 1.9
2017-Sep-09 06:30N 40°57' E 024°29'0 0.0
2017-Sep-09 06:00N 40°57' E 024°29'0 0.0
2017-Sep-09 05:30N 40°57' E 024°29'0 0.0
2017-Sep-09 05:00N 40°57' E 024°29'0 0.0
2017-Sep-09 04:30N 40°57' E 024°29'0 0.0
2017-Sep-09 04:00N 40°57' E 024°29'0 0.0
2017-Sep-09 03:30N 40°57' E 024°29'0 0.0
2017-Sep-09 03:00N 40°57' E 024°29'0 0.0
2017-Sep-09 02:30N 40°57' E 024°29'0 0.0
2017-Sep-09 02:00N 40°57' E 024°29'0 0.0
2017-Sep-09 01:30N 40°57' E 024°29'0 0.0
2017-Sep-09 01:00N 40°57' E 024°29'0 0.0
2017-Sep-09 00:30N 40°57' E 024°29'0 0.0
2017-Sep-09 00:00N 40°57' E 024°29'0 0.0
2017-Sep-08 23:30N 40°57' E 024°29'0 0.0
2017-Sep-08 23:00N 40°57' E 024°29'0 0.0
2017-Sep-08 22:30N 40°57' E 024°29'0 0.0
2017-Sep-08 22:00N 40°57' E 024°29'0 0.0
2017-Sep-08 21:30N 40°57' E 024°29'0 0.0
2017-Sep-08 21:00N 40°57' E 024°29'0 0.0
2017-Sep-08 20:30N 40°57' E 024°29'0 0.0
2017-Sep-08 20:00N 40°57' E 024°29'0 0.0
2017-Sep-08 19:30N 40°57' E 024°29'0 0.0
2017-Sep-08 19:00N 40°57' E 024°29'0 0.0
2017-Sep-08 18:30N 40°57' E 024°29'0 0.0
2017-Sep-08 18:00N 40°57' E 024°29'0 0.0
2017-Sep-08 17:30N 40°57' E 024°29'0 0.0
2017-Sep-08 17:00N 40°57' E 024°29'0 0.0
2017-Sep-08 16:30N 40°57' E 024°29'0 0.0
2017-Sep-08 15:57N 40°57' E 024°29'0 0.0
2017-Sep-08 15:27N 40°57' E 024°29'0 0.0
2017-Sep-08 14:57N 40°57' E 024°29'0 0.0
2017-Sep-08 14:27N 40°57' E 024°29'0 0.0
2017-Sep-08 13:57N 40°57' E 024°29'0 0.0
2017-Sep-08 13:30N 40°57' E 024°29'0 0.0
2017-Sep-08 13:00N 40°57' E 024°29'0 0.0
2017-Sep-08 12:27N 40°57' E 024°29'0 0.0
2017-Sep-08 12:00N 40°57' E 024°29'0 0.0
2017-Sep-08 11:30N 40°57' E 024°29'0 0.0
2017-Sep-08 11:00N 40°57' E 024°29'0 0.0
2017-Sep-08 10:30N 40°57' E 024°29'0 0.0
2017-Sep-08 10:00N 40°57' E 024°29'0 0.0
2017-Sep-08 09:30N 40°57' E 024°29'0 0.0
2017-Sep-08 09:00N 40°57' E 024°29'0 0.0
2017-Sep-08 08:30N 40°57' E 024°29'0 0.0
2017-Sep-08 08:00N 40°57' E 024°29'0 0.0
2017-Sep-08 07:30N 40°57' E 024°29'0 0.0
2017-Sep-08 07:00N 40°57' E 024°29'0 0.0
2017-Sep-08 06:27N 40°57' E 024°29'0 0.0
2017-Sep-08 06:00N 40°57' E 024°29'0 0.0
2017-Sep-08 05:30N 40°57' E 024°29'0 0.0
2017-Sep-08 05:00N 40°57' E 024°29'0 0.0
2017-Sep-08 04:30N 40°57' E 024°29'0 0.0
2017-Sep-08 04:00N 40°57' E 024°29'0 0.0
2017-Sep-08 03:30N 40°57' E 024°29'0 0.0
2017-Sep-08 03:00N 40°57' E 024°29'0 0.0
2017-Sep-08 02:30N 40°57' E 024°29'0 0.0
2017-Sep-08 02:00N 40°57' E 024°29'0 0.0
2017-Sep-08 01:30N 40°57' E 024°29'0 0.0
2017-Sep-08 01:00N 40°57' E 024°29'0 0.0
2017-Sep-08 00:30N 40°57' E 024°29'0 0.0
2017-Sep-08 00:00N 40°57' E 024°29'0 0.0
2017-Sep-07 23:30N 40°57' E 024°29'0 0.0
2017-Sep-07 23:00N 40°57' E 024°29'0 0.0
2017-Sep-07 22:30N 40°57' E 024°29'0 0.0
2017-Sep-07 22:00N 40°57' E 024°29'0 0.0
2017-Sep-07 21:30N 40°57' E 024°29'0 0.0
2017-Sep-07 21:00N 40°57' E 024°29'0 0.0
2017-Sep-07 20:30N 40°57' E 024°29'0 0.0
2017-Sep-07 20:00N 40°57' E 024°29'0 0.0
2017-Sep-07 19:30N 40°57' E 024°29'0 0.0
2017-Sep-07 19:00N 40°57' E 024°29'0 0.0
2017-Sep-07 18:30N 40°57' E 024°29'0 0.0
2017-Sep-07 18:00N 40°57' E 024°29'0 0.0
2017-Sep-07 17:30N 40°57' E 024°29'0 0.0
2017-Sep-07 17:00N 40°57' E 024°29'0 0.0
2017-Sep-07 16:30N 40°57' E 024°29'0 0.0
2017-Sep-07 16:00N 40°57' E 024°29'0 0.0
2017-Sep-07 15:27N 40°57' E 024°29'0 0.0
2017-Sep-07 15:00N 40°57' E 024°29'0 0.0
2017-Sep-07 14:30N 40°57' E 024°29'0 0.0
2017-Sep-07 14:00N 40°57' E 024°29'0 0.0
2017-Sep-07 13:30N 40°57' E 024°29'0 0.0
2017-Sep-07 13:00N 40°57' E 024°29'0 0.0
2017-Sep-07 12:30N 40°57' E 024°29'0 0.0
2017-Sep-07 12:00N 40°57' E 024°29'0 0.0
2017-Sep-07 11:30N 40°57' E 024°29'0 0.0
2017-Sep-07 10:57N 40°57' E 024°29'0 0.0
2017-Sep-07 10:27N 40°57' E 024°29'0 0.0
2017-Sep-07 10:00N 40°57' E 024°29'0 0.0
2017-Sep-07 09:30N 40°57' E 024°29'0 0.0
2017-Sep-07 09:00N 40°57' E 024°29'0 0.0
2017-Sep-07 08:30N 40°57' E 024°29'0 0.0
2017-Sep-07 08:00N 40°57' E 024°29'0 0.0
2017-Sep-07 07:30N 40°57' E 024°29'0 0.0
2017-Sep-07 07:00N 40°57' E 024°29'0 0.0
2017-Sep-07 06:30N 40°57' E 024°29'0 0.0
2017-Sep-07 06:00N 40°57' E 024°29'0 0.0
2017-Sep-07 05:30N 40°57' E 024°29'0 0.0
2017-Sep-07 05:00N 40°57' E 024°29'0 0.0
2017-Sep-07 04:30N 40°57' E 024°29'0 0.0
2017-Sep-07 04:00N 40°57' E 024°29'0 0.0
2017-Sep-07 03:30N 40°57' E 024°29'0 0.0
2017-Sep-07 03:00N 40°57' E 024°29'0 0.0
2017-Sep-07 02:30N 40°57' E 024°29'0 0.0
2017-Sep-07 02:00N 40°57' E 024°29'0 0.0
2017-Sep-07 01:30N 40°57' E 024°29'0 0.0
2017-Sep-07 01:00N 40°57' E 024°29'0 0.0
2017-Sep-07 00:30N 40°57' E 024°29'0 0.0
2017-Sep-07 00:00N 40°57' E 024°29'0 0.0
2017-Sep-06 23:30N 40°57' E 024°29'0 0.0
2017-Sep-06 23:00N 40°57' E 024°29'0 0.0
2017-Sep-06 22:30N 40°57' E 024°29'0 0.0
2017-Sep-06 22:00N 40°57' E 024°29'0 0.0
2017-Sep-06 21:30N 40°57' E 024°29'0 0.0
2017-Sep-06 21:00N 40°57' E 024°29'0 0.0
2017-Sep-06 20:30N 40°57' E 024°29'0 0.0
2017-Sep-06 20:00N 40°57' E 024°29'0 0.0
2017-Sep-06 19:30N 40°57' E 024°29'0 0.0
2017-Sep-06 19:00N 40°57' E 024°29'0 0.0
2017-Sep-06 18:30N 40°57' E 024°29'0 0.0
2017-Sep-06 18:00N 40°57' E 024°29'0 0.0
2017-Sep-06 17:30N 40°57' E 024°29'0 0.0
2017-Sep-06 17:00N 40°57' E 024°29'0 0.0
2017-Sep-06 16:30N 40°57' E 024°29'0 0.0
2017-Sep-06 16:00N 40°57' E 024°29'0 0.2
2017-Sep-06 15:29N 40°57' E 024°29'1 2.4
2017-Sep-06 15:00N 40°56' E 024°29'0 0.6
2017-Sep-06 14:29N 40°56' E 024°29'0 0.0
2017-Sep-06 13:59N 40°56' E 024°29'0 0.0
2017-Sep-06 13:29N 40°56' E 024°29'0 0.0
2017-Sep-06 12:56N 40°56' E 024°29'0 0.0
2017-Sep-06 12:29N 40°56' E 024°29'0 0.0
2017-Sep-06 11:59N 40°56' E 024°29'0 0.0
2017-Sep-06 11:29N 40°56' E 024°29'0 0.0
2017-Sep-06 10:59N 40°56' E 024°29'0 0.0
2017-Sep-06 10:26N 40°56' E 024°29'0 0.0
2017-Sep-06 09:59N 40°56' E 024°29'0 0.0
2017-Sep-06 09:29N 40°56' E 024°29'0 0.1
2017-Sep-06 08:59N 40°56' E 024°29'0 0.0
2017-Sep-06 08:29N 40°56' E 024°29'0 0.1
2017-Sep-06 07:59N 40°56' E 024°29'0 0.0
2017-Sep-06 07:29N 40°56' E 024°29'0 0.0
2017-Sep-06 06:59N 40°56' E 024°29'0 0.1
2017-Sep-06 06:29N 40°56' E 024°29'0 0.1
2017-Sep-06 05:59N 40°56' E 024°29'0 0.0
2017-Sep-06 05:29N 40°56' E 024°29'0 0.0
2017-Sep-06 04:59N 40°56' E 024°29'0 0.1
2017-Sep-06 04:29N 40°56' E 024°29'0 0.0
2017-Sep-06 03:59N 40°56' E 024°29'0 0.0
2017-Sep-06 03:29N 40°56' E 024°29'0 0.1
2017-Sep-06 02:59N 40°56' E 024°28'0 0.0
2017-Sep-06 02:29N 40°56' E 024°29'0 0.1
2017-Sep-06 01:59N 40°56' E 024°29'0 0.0
2017-Sep-06 01:29N 40°56' E 024°29'0 0.1
2017-Sep-06 00:59N 40°56' E 024°29'0 0.1
2017-Sep-06 00:29N 40°56' E 024°29'0 0.0
2017-Sep-05 23:56N 40°56' E 024°29'0 0.1
2017-Sep-05 23:29N 40°56' E 024°29'0 0.1
2017-Sep-05 22:59N 40°56' E 024°28'0 0.1
2017-Sep-05 22:29N 40°56' E 024°28'0 0.1
2017-Sep-05 21:59N 40°56' E 024°28'0 0.1
2017-Sep-05 21:29N 40°56' E 024°28'0 0.0
2017-Sep-05 20:59N 40°56' E 024°28'0 0.0
2017-Sep-05 20:29N 40°56' E 024°28'0 0.0
2017-Sep-05 19:59N 40°56' E 024°28'0 0.0
2017-Sep-05 19:29N 40°56' E 024°28'0 0.0
2017-Sep-05 18:59N 40°56' E 024°28'0 0.0
2017-Sep-05 18:29N 40°56' E 024°28'0 0.0
2017-Sep-05 17:59N 40°56' E 024°28'0 0.0
2017-Sep-05 17:29N 40°56' E 024°28'0 0.0
2017-Sep-05 16:59N 40°56' E 024°28'0 0.1
2017-Sep-05 16:29N 40°56' E 024°28'0 0.1
2017-Sep-05 15:59N 40°56' E 024°29'0 0.0
2017-Sep-05 15:29N 40°56' E 024°29'0 0.1
2017-Sep-05 14:59N 40°56' E 024°29'0 0.2
2017-Sep-05 14:29N 40°56' E 024°29'0 0.2
2017-Sep-05 13:59N 40°56' E 024°29'0 0.0
2017-Sep-05 13:29N 40°56' E 024°29'0 0.1
2017-Sep-05 12:59N 40°56' E 024°29'0 0.0
2017-Sep-05 12:29N 40°56' E 024°29'0 0.2
2017-Sep-05 11:59N 40°56' E 024°29'0 0.0
2017-Sep-05 11:29N 40°56' E 024°28'0 0.0
2017-Sep-05 10:59N 40°56' E 024°28'0 0.0
2017-Sep-05 10:29N 40°56' E 024°28'0 0.1
2017-Sep-05 09:59N 40°56' E 024°28'0 0.0
2017-Sep-05 09:29N 40°56' E 024°28'0 0.0
2017-Sep-05 08:59N 40°56' E 024°28'0 0.0
2017-Sep-05 08:29N 40°56' E 024°28'0 0.0
2017-Sep-05 07:59N 40°56' E 024°28'0 0.0
2017-Sep-05 07:29N 40°56' E 024°28'0 0.0
2017-Sep-05 06:56N 40°56' E 024°28'0 0.0
2017-Sep-05 06:29N 40°56' E 024°28'0 0.0
2017-Sep-05 05:59N 40°56' E 024°28'0 0.0
2017-Sep-05 05:29N 40°56' E 024°28'0 0.0
2017-Sep-05 04:59N 40°56' E 024°28'0 0.0
2017-Sep-05 04:29N 40°56' E 024°28'0 0.0
2017-Sep-05 03:59N 40°56' E 024°28'0 0.0
2017-Sep-05 03:29N 40°56' E 024°28'0 0.0
2017-Sep-05 02:59N 40°56' E 024°28'0 0.0
2017-Sep-05 02:29N 40°56' E 024°28'0 0.1
2017-Sep-05 01:59N 40°56' E 024°28'0 0.0
2017-Sep-05 01:29N 40°56' E 024°28'0 0.0
2017-Sep-05 00:59N 40°56' E 024°28'0 0.0
2017-Sep-05 00:29N 40°56' E 024°28'0 0.0
2017-Sep-04 23:59N 40°56' E 024°28'0 0.1
2017-Sep-04 23:29N 40°56' E 024°28'0 0.0
2017-Sep-04 22:59N 40°56' E 024°28'0 0.0
2017-Sep-04 22:29N 40°56' E 024°28'0 0.0
2017-Sep-04 21:59N 40°56' E 024°28'0 0.0
2017-Sep-04 21:29N 40°56' E 024°28'0 0.0
2017-Sep-04 20:59N 40°56' E 024°28'0 0.0
2017-Sep-04 20:29N 40°56' E 024°28'0 0.0
2017-Sep-04 19:59N 40°56' E 024°28'0 0.0
2017-Sep-04 19:29N 40°56' E 024°28'0 0.0
2017-Sep-04 18:59N 40°56' E 024°28'0 0.0
2017-Sep-04 18:29N 40°56' E 024°28'0 0.0
2017-Sep-04 17:59N 40°56' E 024°28'0 0.1
2017-Sep-04 17:29N 40°56' E 024°28'0 0.1
2017-Sep-04 16:59N 40°56' E 024°28'0 0.1
2017-Sep-04 16:29N 40°56' E 024°28'0 0.0
2017-Sep-04 15:59N 40°56' E 024°29'0 0.0
2017-Sep-04 15:29N 40°56' E 024°29'0 0.0
2017-Sep-04 14:59N 40°56' E 024°28'0 0.0
2017-Sep-04 14:26N 40°56' E 024°28'0 0.0
2017-Sep-04 13:59N 40°56' E 024°28'0 0.0
2017-Sep-04 13:29N 40°56' E 024°28'0 0.0
2017-Sep-04 12:59N 40°56' E 024°29'0 0.0
2017-Sep-04 12:29N 40°56' E 024°29'0 0.0
2017-Sep-04 11:59N 40°56' E 024°29'0 0.0
2017-Sep-04 11:29N 40°56' E 024°29'0 0.0
2017-Sep-04 10:59N 40°56' E 024°28'0 0.0
2017-Sep-04 10:29N 40°56' E 024°28'0 0.0
2017-Sep-04 09:59N 40°56' E 024°28'0 0.0
2017-Sep-04 09:29N 40°56' E 024°28'0 0.0
2017-Sep-04 08:59N 40°56' E 024°28'0 0.1
2017-Sep-04 08:29N 40°56' E 024°28'0 0.1
2017-Sep-04 07:59N 40°56' E 024°28'0 0.0
2017-Sep-04 07:29N 40°56' E 024°28'0 0.0
2017-Sep-04 06:56N 40°56' E 024°28'0 0.0
2017-Sep-04 06:29N 40°56' E 024°28'0 0.0
2017-Sep-04 05:59N 40°56' E 024°28'0 0.1
2017-Sep-04 05:29N 40°56' E 024°28'0 0.0
2017-Sep-04 04:59N 40°56' E 024°28'0 0.0
2017-Sep-04 04:29N 40°56' E 024°28'0 0.0
2017-Sep-04 03:59N 40°56' E 024°28'0 0.0
2017-Sep-04 03:29N 40°56' E 024°28'0 0.0
2017-Sep-04 02:59N 40°56' E 024°28'0 0.1
2017-Sep-04 02:29N 40°56' E 024°28'0 0.0
2017-Sep-04 01:59N 40°56' E 024°28'0 0.2
2017-Sep-04 01:29N 40°56' E 024°28'0 0.1
2017-Sep-04 00:59N 40°56' E 024°29'0 0.1
2017-Sep-04 00:29N 40°56' E 024°29'0 0.0
2017-Sep-03 23:59N 40°56' E 024°29'0 0.1
2017-Sep-03 23:29N 40°56' E 024°29'0 0.0
2017-Sep-03 22:59N 40°56' E 024°29'0 0.0
2017-Sep-03 22:29N 40°56' E 024°29'0 0.1
2017-Sep-03 21:59N 40°56' E 024°29'0 0.0
2017-Sep-03 21:29N 40°56' E 024°29'0 0.0
2017-Sep-03 20:59N 40°56' E 024°29'0 0.1
2017-Sep-03 20:29N 40°56' E 024°29'0 0.0
2017-Sep-03 19:59N 40°56' E 024°29'0 0.2
2017-Sep-03 19:29N 40°56' E 024°29'0 0.0
2017-Sep-03 18:59N 40°56' E 024°29'0 0.0
2017-Sep-03 18:29N 40°56' E 024°29'0 0.0
2017-Sep-03 17:59N 40°56' E 024°29'0 0.0
2017-Sep-03 17:29N 40°56' E 024°29'0 0.0
2017-Sep-03 16:59N 40°56' E 024°29'0 0.0
2017-Sep-03 16:29N 40°56' E 024°29'0 0.0
2017-Sep-03 15:56N 40°56' E 024°29'0 0.0
2017-Sep-03 15:29N 40°56' E 024°29'0 0.0
2017-Sep-03 14:59N 40°56' E 024°29'0 0.0
2017-Sep-03 13:59N 40°56' E 024°29'0 0.0
2017-Sep-03 13:29N 40°56' E 024°29'0 0.0
2017-Sep-03 12:59N 40°56' E 024°29'0 0.0
2017-Sep-03 12:26N 40°56' E 024°29'0 0.0
2017-Sep-03 11:56N 40°56' E 024°29'0 0.0
2017-Sep-03 11:29N 40°56' E 024°29'0 0.0
2017-Sep-03 10:56N 40°56' E 024°29'0 0.0
2017-Sep-03 10:29N 40°56' E 024°29'0 0.0
2017-Sep-03 09:59N 40°56' E 024°28'0 0.0
2017-Sep-03 09:29N 40°56' E 024°28'0 0.0
2017-Sep-03 08:59N 40°56' E 024°28'0 0.0
2017-Sep-03 08:29N 40°56' E 024°28'0 0.1
2017-Sep-03 07:59N 40°56' E 024°28'0 0.1
2017-Sep-03 07:29N 40°56' E 024°28'0 0.0
2017-Sep-03 06:59N 40°56' E 024°28'0 0.1
2017-Sep-03 06:29N 40°56' E 024°28'0 0.1
2017-Sep-03 05:59N 40°56' E 024°28'0 0.0
2017-Sep-03 05:29N 40°56' E 024°28'0 0.1
2017-Sep-03 04:59N 40°56' E 024°29'0 0.1
2017-Sep-03 04:29N 40°56' E 024°29'0 0.1
2017-Sep-03 03:59N 40°56' E 024°29'0 0.0
2017-Sep-03 03:29N 40°56' E 024°28'0 0.0
2017-Sep-03 02:59N 40°56' E 024°28'0 0.0
2017-Sep-03 02:29N 40°56' E 024°28'0 0.0
2017-Sep-03 01:59N 40°56' E 024°28'0 0.0
2017-Sep-03 01:29N 40°56' E 024°28'0 0.0
2017-Sep-03 00:59N 40°56' E 024°28'0 0.0
2017-Sep-03 00:29N 40°56' E 024°28'0 0.0
2017-Sep-02 23:59N 40°56' E 024°28'0 0.1
2017-Sep-02 23:29N 40°56' E 024°29'0 0.1
2017-Sep-02 22:59N 40°56' E 024°28'0 0.0
2017-Sep-02 22:29N 40°56' E 024°28'0 0.2
2017-Sep-02 21:59N 40°56' E 024°29'0 0.0
2017-Sep-02 21:29N 40°56' E 024°29'0 0.1
2017-Sep-02 20:59N 40°56' E 024°29'0 0.0
2017-Sep-02 20:29N 40°56' E 024°29'0 0.0
2017-Sep-02 19:59N 40°56' E 024°29'0 0.0
2017-Sep-02 19:29N 40°56' E 024°29'0 0.0
2017-Sep-02 18:59N 40°56' E 024°29'0 0.0
2017-Sep-02 18:29N 40°56' E 024°29'0 0.0
2017-Sep-02 17:59N 40°56' E 024°29'0 0.0
2017-Sep-02 17:29N 40°56' E 024°29'0 0.0
2017-Sep-02 16:59N 40°56' E 024°29'0 0.0
2017-Sep-02 16:29N 40°56' E 024°29'0 0.0
2017-Sep-02 15:56N 40°56' E 024°29'0 0.0
2017-Sep-02 15:29N 40°56' E 024°29'0 0.0
2017-Sep-02 14:59N 40°56' E 024°29'0 0.0
2017-Sep-02 14:29N 40°56' E 024°29'0 0.0
2017-Sep-02 13:59N 40°56' E 024°29'0 0.0
2017-Sep-02 13:29N 40°56' E 024°29'0 0.0
2017-Sep-02 12:56N 40°56' E 024°29'0 0.0
2017-Sep-02 12:26N 40°56' E 024°29'0 0.0
2017-Sep-02 11:56N 40°56' E 024°29'0 0.0
2017-Sep-02 11:29N 40°56' E 024°29'0 0.0
2017-Sep-02 10:59N 40°56' E 024°29'0 0.0
2017-Sep-02 10:29N 40°56' E 024°29'0 0.0
2017-Sep-02 09:59N 40°56' E 024°28'0 0.0
2017-Sep-02 09:29N 40°56' E 024°28'0 0.0
2017-Sep-02 08:59N 40°56' E 024°28'0 0.0
2017-Sep-02 08:29N 40°56' E 024°28'0 0.0
2017-Sep-02 07:59N 40°56' E 024°28'0 0.0
2017-Sep-02 07:29N 40°56' E 024°28'0 0.0
2017-Sep-02 06:59N 40°56' E 024°28'0 0.0
2017-Sep-02 06:29N 40°56' E 024°28'0 0.0
2017-Sep-02 05:59N 40°56' E 024°28'0 0.1
2017-Sep-02 05:29N 40°56' E 024°28'0 0.0
2017-Sep-02 04:59N 40°56' E 024°28'0 0.0
2017-Sep-02 04:29N 40°56' E 024°28'0 0.0
2017-Sep-02 03:59N 40°56' E 024°28'0 0.0
2017-Sep-02 03:29N 40°56' E 024°28'0 0.0
2017-Sep-02 02:59N 40°56' E 024°28'0 0.0
2017-Sep-02 02:29N 40°56' E 024°28'0 0.0
2017-Sep-02 01:59N 40°56' E 024°28'0 0.0
2017-Sep-02 01:29N 40°56' E 024°28'0 0.0
2017-Sep-02 00:59N 40°56' E 024°28'0 0.0
2017-Sep-02 00:29N 40°56' E 024°28'0 0.0
2017-Sep-01 23:59N 40°56' E 024°28'0 0.0
2017-Sep-01 23:26N 40°56' E 024°28'0 0.0
2017-Sep-01 22:59N 40°56' E 024°28'0 0.0
2017-Sep-01 22:29N 40°56' E 024°28'0 0.0
2017-Sep-01 21:59N 40°56' E 024°28'0 0.0
2017-Sep-01 21:29N 40°56' E 024°28'0 0.0
2017-Sep-01 20:59N 40°56' E 024°28'0 0.0
2017-Sep-01 20:29N 40°56' E 024°28'0 0.1
2017-Sep-01 19:59N 40°56' E 024°29'0 0.0
2017-Sep-01 19:29N 40°56' E 024°29'  
Track history (hours):
 
Tides and Currents Weather Stations Pressure Air Temp Water Temp Dewpoint Dewpoint Depression Visibility Wind Speed Wind Dir Waves Ship Positions

Joelle

Last reported at 2017-Sep-11 19:08 UTC. Time now 2017-Sep-23 07:45 UTC.
Position N 35°56' E 032°57'.
Warning: this ship's position is 11 days out of date.

Length 108 m; draft 7.3 m.

MMSI: 256534000.

Date/timePositionNaut miles runAvg speedWind from/ knotsBaromVisibWave heightAir tempDewpointWater temp
2017-Sep-11 19:08N 35°56' E 032°57'210.3
2017-Sep-11 18:57N 35°55' E 032°55'810.3
2017-Sep-11 18:10N 35°55' E 032°45'210.7
2017-Sep-11 18:00N 35°56' E 032°43'611.0
2017-Sep-11 17:29N 35°57' E 032°36'511.0
2017-Sep-11 17:00N 35°59' E 032°30'510.9
2017-Sep-11 16:30N 35°60' E 032°23'510.9
2017-Sep-11 16:00N 35°59' E 032°16'1010.8
2017-Sep-11 15:07N 35°59' E 032°05'510.9
2017-Sep-11 14:41N 35°59' E 031°59'211.0
2017-Sep-11 14:31N 35°59' E 031°56'610.9
2017-Sep-11 14:00N 35°59' E 031°50'510.7
2017-Sep-11 13:30N 35°59' E 031°43'510.6
2017-Sep-11 13:00N 35°59' E 031°37'510.4
2017-Sep-11 12:30N 35°59' E 031°30'510.3
2017-Sep-11 12:00N 35°60' E 031°24'510.4
2017-Sep-11 11:30N 35°60' E 031°17'510.5
2017-Sep-11 11:01N 35°60' E 031°11'510.4
2017-Sep-11 10:30N 35°59' E 031°04'510.5
2017-Sep-11 10:00N 35°59' E 030°58'510.6
2017-Sep-11 09:30N 35°59' E 030°51'510.9
2017-Sep-11 09:00N 35°59' E 030°45'611.2
2017-Sep-11 08:30N 35°59' E 030°38'611.4
2017-Sep-11 08:00N 35°60' E 030°31'611.1
2017-Sep-11 07:30N 36°00' E 030°24'233 8.4
2017-Sep-10 03:44N 37°31' E 025°55'210.6
2017-Sep-10 03:30N 37°33' E 025°54'710.5
2017-Sep-10 02:52N 37°39' E 025°51'410.9
2017-Sep-10 02:28N 37°43' E 025°49'13610.6
2017-Sep-09 13:38N 39°50' E 024°46'410.1
2017-Sep-09 13:13N 39°54' E 024°44'210.4
2017-Sep-09 13:00N 39°56' E 024°43'710.3
2017-Sep-09 12:21N 40°02' E 024°39'410.3
2017-Sep-09 11:59N 40°06' E 024°37'510.4
2017-Sep-09 11:30N 40°10' E 024°35'510.7
2017-Sep-09 11:00N 40°15' E 024°32'510.8
2017-Sep-09 10:30N 40°20' E 024°29'510.9
2017-Sep-09 10:00N 40°25' E 024°27'510.8
2017-Sep-09 09:30N 40°30' E 024°24'510.8
2017-Sep-09 09:01N 40°35' E 024°21'510.4
2017-Sep-09 08:31N 40°40' E 024°21'611.3
2017-Sep-09 08:01N 40°46' E 024°24'611.2
2017-Sep-09 07:30N 40°51' E 024°26'510.9
2017-Sep-09 07:00N 40°56' E 024°29'1 1.9
2017-Sep-09 06:30N 40°57' E 024°29'0 0.0
2017-Sep-09 06:00N 40°57' E 024°29'0 0.0
2017-Sep-09 05:30N 40°57' E 024°29'0 0.0
2017-Sep-09 05:00N 40°57' E 024°29'0 0.0
2017-Sep-09 04:30N 40°57' E 024°29'0 0.0
2017-Sep-09 04:00N 40°57' E 024°29'0 0.0
2017-Sep-09 03:30N 40°57' E 024°29'0 0.0
2017-Sep-09 03:00N 40°57' E 024°29'0 0.0
2017-Sep-09 02:30N 40°57' E 024°29'0 0.0
2017-Sep-09 02:00N 40°57' E 024°29'0 0.0
2017-Sep-09 01:30N 40°57' E 024°29'0 0.0
2017-Sep-09 01:00N 40°57' E 024°29'0 0.0
2017-Sep-09 00:30N 40°57' E 024°29'0 0.0
2017-Sep-09 00:00N 40°57' E 024°29'0 0.0
2017-Sep-08 23:30N 40°57' E 024°29'0 0.0
2017-Sep-08 23:00N 40°57' E 024°29'0 0.0
2017-Sep-08 22:30N 40°57' E 024°29'0 0.0
2017-Sep-08 22:00N 40°57' E 024°29'0 0.0
2017-Sep-08 21:30N 40°57' E 024°29'0 0.0
2017-Sep-08 21:00N 40°57' E 024°29'0 0.0
2017-Sep-08 20:30N 40°57' E 024°29'0 0.0
2017-Sep-08 20:00N 40°57' E 024°29'0 0.0
2017-Sep-08 19:30N 40°57' E 024°29'0 0.0
2017-Sep-08 19:00N 40°57' E 024°29'0 0.0
2017-Sep-08 18:30N 40°57' E 024°29'0 0.0
2017-Sep-08 18:00N 40°57' E 024°29'0 0.0
2017-Sep-08 17:30N 40°57' E 024°29'0 0.0
2017-Sep-08 17:00N 40°57' E 024°29'0 0.0
2017-Sep-08 16:30N 40°57' E 024°29'0 0.0
2017-Sep-08 15:57N 40°57' E 024°29'0 0.0
2017-Sep-08 15:27N 40°57' E 024°29'0 0.0
2017-Sep-08 14:57N 40°57' E 024°29'0 0.0
2017-Sep-08 14:27N 40°57' E 024°29'0 0.0
2017-Sep-08 13:57N 40°57' E 024°29'0 0.0
2017-Sep-08 13:30N 40°57' E 024°29'0 0.0
2017-Sep-08 13:00N 40°57' E 024°29'0 0.0
2017-Sep-08 12:27N 40°57' E 024°29'0 0.0
2017-Sep-08 12:00N 40°57' E 024°29'0 0.0
2017-Sep-08 11:30N 40°57' E 024°29'0 0.0
2017-Sep-08 11:00N 40°57' E 024°29'0 0.0
2017-Sep-08 10:30N 40°57' E 024°29'0 0.0
2017-Sep-08 10:00N 40°57' E 024°29'0 0.0
2017-Sep-08 09:30N 40°57' E 024°29'0 0.0
2017-Sep-08 09:00N 40°57' E 024°29'0 0.0
2017-Sep-08 08:30N 40°57' E 024°29'0 0.0
2017-Sep-08 08:00N 40°57' E 024°29'0 0.0
2017-Sep-08 07:30N 40°57' E 024°29'0 0.0
2017-Sep-08 07:00N 40°57' E 024°29'0 0.0
2017-Sep-08 06:27N 40°57' E 024°29'0 0.0
2017-Sep-08 06:00N 40°57' E 024°29'0 0.0
2017-Sep-08 05:30N 40°57' E 024°29'0 0.0
2017-Sep-08 05:00N 40°57' E 024°29'0 0.0
2017-Sep-08 04:30N 40°57' E 024°29'0 0.0
2017-Sep-08 04:00N 40°57' E 024°29'0 0.0
2017-Sep-08 03:30N 40°57' E 024°29'0 0.0
2017-Sep-08 03:00N 40°57' E 024°29'0 0.0
2017-Sep-08 02:30N 40°57' E 024°29'0 0.0
2017-Sep-08 02:00N 40°57' E 024°29'0 0.0
2017-Sep-08 01:30N 40°57' E 024°29'0 0.0
2017-Sep-08 01:00N 40°57' E 024°29'0 0.0
2017-Sep-08 00:30N 40°57' E 024°29'0 0.0
2017-Sep-08 00:00N 40°57' E 024°29'0 0.0
2017-Sep-07 23:30N 40°57' E 024°29'0 0.0
2017-Sep-07 23:00N 40°57' E 024°29'0 0.0
2017-Sep-07 22:30N 40°57' E 024°29'0 0.0
2017-Sep-07 22:00N 40°57' E 024°29'0 0.0
2017-Sep-07 21:30N 40°57' E 024°29'0 0.0
2017-Sep-07 21:00N 40°57' E 024°29'0 0.0
2017-Sep-07 20:30N 40°57' E 024°29'0 0.0
2017-Sep-07 20:00N 40°57' E 024°29'0 0.0
2017-Sep-07 19:30N 40°57' E 024°29'0 0.0
2017-Sep-07 19:00N 40°57' E 024°29'0 0.0
2017-Sep-07 18:30N 40°57' E 024°29'0 0.0
2017-Sep-07 18:00N 40°57' E 024°29'0 0.0
2017-Sep-07 17:30N 40°57' E 024°29'0 0.0
2017-Sep-07 17:00N 40°57' E 024°29'0 0.0
2017-Sep-07 16:30N 40°57' E 024°29'0 0.0
2017-Sep-07 16:00N 40°57' E 024°29'0 0.0
2017-Sep-07 15:27N 40°57' E 024°29'0 0.0
2017-Sep-07 15:00N 40°57' E 024°29'0 0.0
2017-Sep-07 14:30N 40°57' E 024°29'0 0.0
2017-Sep-07 14:00N 40°57' E 024°29'0 0.0
2017-Sep-07 13:30N 40°57' E 024°29'0 0.0
2017-Sep-07 13:00N 40°57' E 024°29'0 0.0
2017-Sep-07 12:30N 40°57' E 024°29'0 0.0
2017-Sep-07 12:00N 40°57' E 024°29'0 0.0
2017-Sep-07 11:30N 40°57' E 024°29'0 0.0
2017-Sep-07 10:57N 40°57' E 024°29'0 0.0
2017-Sep-07 10:27N 40°57' E 024°29'0 0.0
2017-Sep-07 10:00N 40°57' E 024°29'0 0.0
2017-Sep-07 09:30N 40°57' E 024°29'0 0.0
2017-Sep-07 09:00N 40°57' E 024°29'0 0.0
2017-Sep-07 08:30N 40°57' E 024°29'0 0.0
2017-Sep-07 08:00N 40°57' E 024°29'0 0.0
2017-Sep-07 07:30N 40°57' E 024°29'0 0.0
2017-Sep-07 07:00N 40°57' E 024°29'0 0.0
2017-Sep-07 06:30N 40°57' E 024°29'0 0.0
2017-Sep-07 06:00N 40°57' E 024°29'0 0.0
2017-Sep-07 05:30N 40°57' E 024°29'0 0.0
2017-Sep-07 05:00N 40°57' E 024°29'0 0.0
2017-Sep-07 04:30N 40°57' E 024°29'0 0.0
2017-Sep-07 04:00N 40°57' E 024°29'0 0.0
2017-Sep-07 03:30N 40°57' E 024°29'0 0.0
2017-Sep-07 03:00N 40°57' E 024°29'0 0.0
2017-Sep-07 02:30N 40°57' E 024°29'0 0.0
2017-Sep-07 02:00N 40°57' E 024°29'0 0.0
2017-Sep-07 01:30N 40°57' E 024°29'0 0.0
2017-Sep-07 01:00N 40°57' E 024°29'0 0.0
2017-Sep-07 00:30N 40°57' E 024°29'0 0.0
2017-Sep-07 00:00N 40°57' E 024°29'0 0.0
2017-Sep-06 23:30N 40°57' E 024°29'0 0.0
2017-Sep-06 23:00N 40°57' E 024°29'0 0.0
2017-Sep-06 22:30N 40°57' E 024°29'0 0.0
2017-Sep-06 22:00N 40°57' E 024°29'0 0.0
2017-Sep-06 21:30N 40°57' E 024°29'0 0.0
2017-Sep-06 21:00N 40°57' E 024°29'0 0.0
2017-Sep-06 20:30N 40°57' E 024°29'0 0.0
2017-Sep-06 20:00N 40°57' E 024°29'0 0.0
2017-Sep-06 19:30N 40°57' E 024°29'0 0.0
2017-Sep-06 19:00N 40°57' E 024°29'0 0.0
2017-Sep-06 18:30N 40°57' E 024°29'0 0.0
2017-Sep-06 18:00N 40°57' E 024°29'0 0.0
2017-Sep-06 17:30N 40°57' E 024°29'0 0.0
2017-Sep-06 17:00N 40°57' E 024°29'0 0.0
2017-Sep-06 16:30N 40°57' E 024°29'0 0.0
2017-Sep-06 16:00N 40°57' E 024°29'0 0.2
2017-Sep-06 15:29N 40°57' E 024°29'1 2.4
2017-Sep-06 15:00N 40°56' E 024°29'0 0.6
2017-Sep-06 14:29N 40°56' E 024°29'0 0.0
2017-Sep-06 13:59N 40°56' E 024°29'0 0.0
2017-Sep-06 13:29N 40°56' E 024°29'0 0.0
2017-Sep-06 12:56N 40°56' E 024°29'0 0.0
2017-Sep-06 12:29N 40°56' E 024°29'0 0.0
2017-Sep-06 11:59N 40°56' E 024°29'0 0.0
2017-Sep-06 11:29N 40°56' E 024°29'0 0.0
2017-Sep-06 10:59N 40°56' E 024°29'0 0.0
2017-Sep-06 10:26N 40°56' E 024°29'0 0.0
2017-Sep-06 09:59N 40°56' E 024°29'0 0.0
2017-Sep-06 09:29N 40°56' E 024°29'0 0.1
2017-Sep-06 08:59N 40°56' E 024°29'0 0.0
2017-Sep-06 08:29N 40°56' E 024°29'0 0.1
2017-Sep-06 07:59N 40°56' E 024°29'0 0.0
2017-Sep-06 07:29N 40°56' E 024°29'0 0.0
2017-Sep-06 06:59N 40°56' E 024°29'0 0.1
2017-Sep-06 06:29N 40°56' E 024°29'0 0.1
2017-Sep-06 05:59N 40°56' E 024°29'0 0.0
2017-Sep-06 05:29N 40°56' E 024°29'0 0.0
2017-Sep-06 04:59N 40°56' E 024°29'0 0.1
2017-Sep-06 04:29N 40°56' E 024°29'0 0.0
2017-Sep-06 03:59N 40°56' E 024°29'0 0.0
2017-Sep-06 03:29N 40°56' E 024°29'0 0.1
2017-Sep-06 02:59N 40°56' E 024°28'0 0.0
2017-Sep-06 02:29N 40°56' E 024°29'0 0.1
2017-Sep-06 01:59N 40°56' E 024°29'0 0.0
2017-Sep-06 01:29N 40°56' E 024°29'0 0.1
2017-Sep-06 00:59N 40°56' E 024°29'0 0.1
2017-Sep-06 00:29N 40°56' E 024°29'0 0.0
2017-Sep-05 23:56N 40°56' E 024°29'0 0.1
2017-Sep-05 23:29N 40°56' E 024°29'0 0.1
2017-Sep-05 22:59N 40°56' E 024°28'0 0.1
2017-Sep-05 22:29N 40°56' E 024°28'0 0.1
2017-Sep-05 21:59N 40°56' E 024°28'0 0.1
2017-Sep-05 21:29N 40°56' E 024°28'0 0.0
2017-Sep-05 20:59N 40°56' E 024°28'0 0.0
2017-Sep-05 20:29N 40°56' E 024°28'0 0.0
2017-Sep-05 19:59N 40°56' E 024°28'0 0.0
2017-Sep-05 19:29N 40°56' E 024°28'0 0.0
2017-Sep-05 18:59N 40°56' E 024°28'0 0.0
2017-Sep-05 18:29N 40°56' E 024°28'0 0.0
2017-Sep-05 17:59N 40°56' E 024°28'0 0.0
2017-Sep-05 17:29N 40°56' E 024°28'0 0.0
2017-Sep-05 16:59N 40°56' E 024°28'0 0.1
2017-Sep-05 16:29N 40°56' E 024°28'0 0.1
2017-Sep-05 15:59N 40°56' E 024°29'0 0.0
2017-Sep-05 15:29N 40°56' E 024°29'0 0.1
2017-Sep-05 14:59N 40°56' E 024°29'0 0.2
2017-Sep-05 14:29N 40°56' E 024°29'0 0.2
2017-Sep-05 13:59N 40°56' E 024°29'0 0.0
2017-Sep-05 13:29N 40°56' E 024°29'0 0.1
2017-Sep-05 12:59N 40°56' E 024°29'0 0.0
2017-Sep-05 12:29N 40°56' E 024°29'0 0.2
2017-Sep-05 11:59N 40°56' E 024°29'0 0.0
2017-Sep-05 11:29N 40°56' E 024°28'0 0.0
2017-Sep-05 10:59N 40°56' E 024°28'0 0.0
2017-Sep-05 10:29N 40°56' E 024°28'0 0.1
2017-Sep-05 09:59N 40°56' E 024°28'0 0.0
2017-Sep-05 09:29N 40°56' E 024°28'0 0.0
2017-Sep-05 08:59N 40°56' E 024°28'0 0.0
2017-Sep-05 08:29N 40°56' E 024°28'0 0.0
2017-Sep-05 07:59N 40°56' E 024°28'0 0.0
2017-Sep-05 07:29N 40°56' E 024°28'0 0.0
2017-Sep-05 06:56N 40°56' E 024°28'0 0.0
2017-Sep-05 06:29N 40°56' E 024°28'0 0.0
2017-Sep-05 05:59N 40°56' E 024°28'0 0.0
2017-Sep-05 05:29N 40°56' E 024°28'0 0.0
2017-Sep-05 04:59N 40°56' E 024°28'0 0.0
2017-Sep-05 04:29N 40°56' E 024°28'0 0.0
2017-Sep-05 03:59N 40°56' E 024°28'0 0.0
2017-Sep-05 03:29N 40°56' E 024°28'0 0.0
2017-Sep-05 02:59N 40°56' E 024°28'0 0.0
2017-Sep-05 02:29N 40°56' E 024°28'0 0.1
2017-Sep-05 01:59N 40°56' E 024°28'0 0.0
2017-Sep-05 01:29N 40°56' E 024°28'0 0.0
2017-Sep-05 00:59N 40°56' E 024°28'0 0.0
2017-Sep-05 00:29N 40°56' E 024°28'0 0.0
2017-Sep-04 23:59N 40°56' E 024°28'0 0.1
2017-Sep-04 23:29N 40°56' E 024°28'0 0.0
2017-Sep-04 22:59N 40°56' E 024°28'0 0.0
2017-Sep-04 22:29N 40°56' E 024°28'0 0.0
2017-Sep-04 21:59N 40°56' E 024°28'0 0.0
2017-Sep-04 21:29N 40°56' E 024°28'0 0.0
2017-Sep-04 20:59N 40°56' E 024°28'0 0.0
2017-Sep-04 20:29N 40°56' E 024°28'0 0.0
2017-Sep-04 19:59N 40°56' E 024°28'0 0.0
2017-Sep-04 19:29N 40°56' E 024°28'0 0.0
2017-Sep-04 18:59N 40°56' E 024°28'0 0.0
2017-Sep-04 18:29N 40°56' E 024°28'0 0.0
2017-Sep-04 17:59N 40°56' E 024°28'0 0.1
2017-Sep-04 17:29N 40°56' E 024°28'0 0.1
2017-Sep-04 16:59N 40°56' E 024°28'0 0.1
2017-Sep-04 16:29N 40°56' E 024°28'0 0.0
2017-Sep-04 15:59N 40°56' E 024°29'0 0.0
2017-Sep-04 15:29N 40°56' E 024°29'0 0.0
2017-Sep-04 14:59N 40°56' E 024°28'0 0.0
2017-Sep-04 14:26N 40°56' E 024°28'0 0.0
2017-Sep-04 13:59N 40°56' E 024°28'0 0.0
2017-Sep-04 13:29N 40°56' E 024°28'0 0.0
2017-Sep-04 12:59N 40°56' E 024°29'0 0.0
2017-Sep-04 12:29N 40°56' E 024°29'0 0.0
2017-Sep-04 11:59N 40°56' E 024°29'0 0.0
2017-Sep-04 11:29N 40°56' E 024°29'0 0.0
2017-Sep-04 10:59N 40°56' E 024°28'0 0.0
2017-Sep-04 10:29N 40°56' E 024°28'0 0.0
2017-Sep-04 09:59N 40°56' E 024°28'0 0.0
2017-Sep-04 09:29N 40°56' E 024°28'0 0.0
2017-Sep-04 08:59N 40°56' E 024°28'0 0.1
2017-Sep-04 08:29N 40°56' E 024°28'0 0.1
2017-Sep-04 07:59N 40°56' E 024°28'0 0.0
2017-Sep-04 07:29N 40°56' E 024°28'0 0.0
2017-Sep-04 06:56N 40°56' E 024°28'0 0.0
2017-Sep-04 06:29N 40°56' E 024°28'0 0.0
2017-Sep-04 05:59N 40°56' E 024°28'0 0.1
2017-Sep-04 05:29N 40°56' E 024°28'0 0.0
2017-Sep-04 04:59N 40°56' E 024°28'0 0.0
2017-Sep-04 04:29N 40°56' E 024°28'0 0.0
2017-Sep-04 03:59N 40°56' E 024°28'0 0.0
2017-Sep-04 03:29N 40°56' E 024°28'0 0.0
2017-Sep-04 02:59N 40°56' E 024°28'0 0.1
2017-Sep-04 02:29N 40°56' E 024°28'0 0.0
2017-Sep-04 01:59N 40°56' E 024°28'0 0.2
2017-Sep-04 01:29N 40°56' E 024°28'0 0.1
2017-Sep-04 00:59N 40°56' E 024°29'0 0.1
2017-Sep-04 00:29N 40°56' E 024°29'0 0.0
2017-Sep-03 23:59N 40°56' E 024°29'0 0.1
2017-Sep-03 23:29N 40°56' E 024°29'0 0.0
2017-Sep-03 22:59N 40°56' E 024°29'0 0.0
2017-Sep-03 22:29N 40°56' E 024°29'0 0.1
2017-Sep-03 21:59N 40°56' E 024°29'0 0.0
2017-Sep-03 21:29N 40°56' E 024°29'0 0.0
2017-Sep-03 20:59N 40°56' E 024°29'0 0.1
2017-Sep-03 20:29N 40°56' E 024°29'0 0.0
2017-Sep-03 19:59N 40°56' E 024°29'0 0.2
2017-Sep-03 19:29N 40°56' E 024°29'0 0.0
2017-Sep-03 18:59N 40°56' E 024°29'0 0.0
2017-Sep-03 18:29N 40°56' E 024°29'0 0.0
2017-Sep-03 17:59N 40°56' E 024°29'0 0.0
2017-Sep-03 17:29N 40°56' E 024°29'0 0.0
2017-Sep-03 16:59N 40°56' E 024°29'0 0.0
2017-Sep-03 16:29N 40°56' E 024°29'0 0.0
2017-Sep-03 15:56N 40°56' E 024°29'0 0.0
2017-Sep-03 15:29N 40°56' E 024°29'0 0.0
2017-Sep-03 14:59N 40°56' E 024°29'0 0.0
2017-Sep-03 13:59N 40°56' E 024°29'0 0.0
2017-Sep-03 13:29N 40°56' E 024°29'0 0.0
2017-Sep-03 12:59N 40°56' E 024°29'0 0.0
2017-Sep-03 12:26N 40°56' E 024°29'0 0.0
2017-Sep-03 11:56N 40°56' E 024°29'0 0.0
2017-Sep-03 11:29N 40°56' E 024°29'0 0.0
2017-Sep-03 10:56N 40°56' E 024°29'0 0.0
2017-Sep-03 10:29N 40°56' E 024°29'0 0.0
2017-Sep-03 09:59N 40°56' E 024°28'0 0.0
2017-Sep-03 09:29N 40°56' E 024°28'0 0.0
2017-Sep-03 08:59N 40°56' E 024°28'0 0.0
2017-Sep-03 08:29N 40°56' E 024°28'0 0.1
2017-Sep-03 07:59N 40°56' E 024°28'0 0.1
2017-Sep-03 07:29N 40°56' E 024°28'0 0.0
2017-Sep-03 06:59N 40°56' E 024°28'0 0.1
2017-Sep-03 06:29N 40°56' E 024°28'0 0.1
2017-Sep-03 05:59N 40°56' E 024°28'0 0.0
2017-Sep-03 05:29N 40°56' E 024°28'0 0.1
2017-Sep-03 04:59N 40°56' E 024°29'0 0.1
2017-Sep-03 04:29N 40°56' E 024°29'0 0.1
2017-Sep-03 03:59N 40°56' E 024°29'0 0.0
2017-Sep-03 03:29N 40°56' E 024°28'0 0.0
2017-Sep-03 02:59N 40°56' E 024°28'0 0.0
2017-Sep-03 02:29N 40°56' E 024°28'0 0.0
2017-Sep-03 01:59N 40°56' E 024°28'0 0.0
2017-Sep-03 01:29N 40°56' E 024°28'0 0.0
2017-Sep-03 00:59N 40°56' E 024°28'0 0.0
2017-Sep-03 00:29N 40°56' E 024°28'0 0.0
2017-Sep-02 23:59N 40°56' E 024°28'0 0.1
2017-Sep-02 23:29N 40°56' E 024°29'0 0.1
2017-Sep-02 22:59N 40°56' E 024°28'0 0.0
2017-Sep-02 22:29N 40°56' E 024°28'0 0.2
2017-Sep-02 21:59N 40°56' E 024°29'0 0.0
2017-Sep-02 21:29N 40°56' E 024°29'0 0.1
2017-Sep-02 20:59N 40°56' E 024°29'0 0.0
2017-Sep-02 20:29N 40°56' E 024°29'0 0.0
2017-Sep-02 19:59N 40°56' E 024°29'0 0.0
2017-Sep-02 19:29N 40°56' E 024°29'0 0.0
2017-Sep-02 18:59N 40°56' E 024°29'0 0.0
2017-Sep-02 18:29N 40°56' E 024°29'0 0.0
2017-Sep-02 17:59N 40°56' E 024°29'0 0.0
2017-Sep-02 17:29N 40°56' E 024°29'0 0.0
2017-Sep-02 16:59N 40°56' E 024°29'0 0.0
2017-Sep-02 16:29N 40°56' E 024°29'0 0.0
2017-Sep-02 15:56N 40°56' E 024°29'0 0.0
2017-Sep-02 15:29N 40°56' E 024°29'0 0.0
2017-Sep-02 14:59N 40°56' E 024°29'0 0.0
2017-Sep-02 14:29N 40°56' E 024°29'0 0.0
2017-Sep-02 13:59N 40°56' E 024°29'0 0.0
2017-Sep-02 13:29N 40°56' E 024°29'0 0.0
2017-Sep-02 12:56N 40°56' E 024°29'0 0.0
2017-Sep-02 12:26N 40°56' E 024°29'0 0.0
2017-Sep-02 11:56N 40°56' E 024°29'0 0.0
2017-Sep-02 11:29N 40°56' E 024°29'0 0.0
2017-Sep-02 10:59N 40°56' E 024°29'0 0.0
2017-Sep-02 10:29N 40°56' E 024°29'0 0.0
2017-Sep-02 09:59N 40°56' E 024°28'0 0.0
2017-Sep-02 09:29N 40°56' E 024°28'0 0.0
2017-Sep-02 08:59N 40°56' E 024°28'0 0.0
2017-Sep-02 08:29N 40°56' E 024°28'0 0.0
2017-Sep-02 07:59N 40°56' E 024°28'0 0.0
2017-Sep-02 07:29N 40°56' E 024°28'0 0.0
2017-Sep-02 06:59N 40°56' E 024°28'0 0.0
2017-Sep-02 06:29N 40°56' E 024°28'0 0.0
2017-Sep-02 05:59N 40°56' E 024°28'0 0.1
2017-Sep-02 05:29N 40°56' E 024°28'0 0.0
2017-Sep-02 04:59N 40°56' E 024°28'0 0.0
2017-Sep-02 04:29N 40°56' E 024°28'0 0.0
2017-Sep-02 03:59N 40°56' E 024°28'0 0.0
2017-Sep-02 03:29N 40°56' E 024°28'0 0.0
2017-Sep-02 02:59N 40°56' E 024°28'0 0.0
2017-Sep-02 02:29N 40°56' E 024°28'0 0.0
2017-Sep-02 01:59N 40°56' E 024°28'0 0.0
2017-Sep-02 01:29N 40°56' E 024°28'0 0.0
2017-Sep-02 00:59N 40°56' E 024°28'0 0.0
2017-Sep-02 00:29N 40°56' E 024°28'0 0.0
2017-Sep-01 23:59N 40°56' E 024°28'0 0.0
2017-Sep-01 23:26N 40°56' E 024°28'0 0.0
2017-Sep-01 22:59N 40°56' E 024°28'0 0.0
2017-Sep-01 22:29N 40°56' E 024°28'0 0.0
2017-Sep-01 21:59N 40°56' E 024°28'0 0.0
2017-Sep-01 21:29N 40°56' E 024°28'0 0.0
2017-Sep-01 20:59N 40°56' E 024°28'0 0.0
2017-Sep-01 20:29N 40°56' E 024°28'0 0.1
2017-Sep-01 19:59N 40°56' E 024°29'0 0.0
2017-Sep-01 19:29N 40°56' E 024°29'  

Dump ship's entire track history